Time;durP1;ratioP1;P1;durP2;ratioP2;P2;SDS_P1;SDS_P2;PMS_P1;PMS_P2;Temp;Humidity;BMP_temperature;BMP_pressure;BME280_temperature;BME280_humidity;BME280_pressure;Samples;Min_cycle;Max_cycle;Signal;HPM_P1;HPM_P2
2022/04/08 00:00:49;;;;;;;0.85;0.85;;;8.40;99.90;;;;;;4982506;28;20201;-53
2022/04/08 00:03:16;;;;;;;2.80;0.85;;;8.10;99.90;;;;;;4982371;28;20204;-50
2022/04/08 00:05:43;;;;;;;1.35;1.00;;;7.90;99.90;;;;;;4982044;28;20309;-48
2022/04/08 00:08:11;;;;;;;1.63;0.70;;;7.70;99.90;;;;;;4982373;28;20271;-51
2022/04/08 00:10:38;;;;;;;1.00;1.00;;;7.60;99.90;;;;;;4981792;28;20347;-53
2022/04/08 00:13:06;;;;;;;1.15;0.90;;;7.50;99.90;;;;;;4980843;28;21125;-53
2022/04/08 00:15:36;;;;;;;1.70;0.93;;;7.50;99.90;;;;;;4981678;28;20198;-53
2022/04/08 00:18:04;;;;;;;1.38;0.95;;;7.50;99.90;;;;;;4982164;28;20226;-50
2022/04/08 00:20:32;;;;;;;1.27;0.90;;;7.60;99.90;;;;;;4981685;28;20209;-53
2022/04/08 00:23:01;;;;;;;1.40;1.10;;;7.80;99.90;;;;;;4981750;28;20201;-49
2022/04/08 00:25:30;;;;;;;1.17;0.90;;;8.00;99.90;;;;;;4982673;28;20555;-49
2022/04/08 00:27:58;;;;;;;1.20;1.13;;;8.10;99.90;;;;;;4981692;28;20226;-49
2022/04/08 00:30:27;;;;;;;4.13;0.80;;;8.20;99.90;;;;;;4981657;28;20265;-51
2022/04/08 00:32:57;;;;;;;1.88;0.70;;;8.20;99.90;;;;;;4981871;28;20386;-50
2022/04/08 00:35:27;;;;;;;2.00;0.93;;;8.20;99.90;;;;;;4982517;28;20237;-53
2022/04/08 00:37:54;;;;;;;2.50;0.63;;;8.20;99.90;;;;;;4981622;28;20546;-50
2022/04/08 00:40:22;;;;;;;1.60;0.80;;;8.10;99.90;;;;;;4981603;28;20501;-50
2022/04/08 00:42:49;;;;;;;1.10;1.00;;;8.10;99.90;;;;;;4981237;28;20198;-54
2022/04/08 00:45:16;;;;;;;2.00;0.60;;;8.00;99.90;;;;;;4981456;28;20225;-49
2022/04/08 00:47:44;;;;;;;1.73;1.00;;;8.00;99.90;;;;;;4981178;28;20226;-54
2022/04/08 00:50:12;;;;;;;0.77;0.77;;;7.90;99.90;;;;;;4981412;28;20216;-52
2022/04/08 00:52:42;;;;;;;1.48;0.50;;;7.90;99.90;;;;;;4981352;28;20202;-49
2022/04/08 00:55:10;;;;;;;3.67;0.90;;;7.90;99.90;;;;;;4981193;28;20261;-49
2022/04/08 00:57:38;;;;;;;2.38;0.82;;;7.90;99.90;;;;;;4981294;28;20560;-50
2022/04/08 01:00:09;;;;;;;2.50;1.80;;;7.90;99.90;;;;;;4982103;28;20214;-47
2022/04/08 01:02:36;;;;;;;0.50;0.50;;;7.90;99.90;;;;;;4981465;28;20202;-50
2022/04/08 01:05:04;;;;;;;2.63;0.63;;;7.90;99.90;;;;;;4981550;28;20237;-51
2022/04/08 01:07:31;;;;;;;0.93;0.70;;;7.90;99.90;;;;;;4981061;28;20544;-53
2022/04/08 01:09:58;;;;;;;2.50;1.65;;;7.90;99.90;;;;;;4981515;28;20254;-50
2022/04/08 01:12:25;;;;;;;3.33;0.80;;;7.90;99.90;;;;;;4980771;28;20225;-52
2022/04/08 01:14:57;;;;;;;2.30;0.60;;;7.80;99.90;;;;;;4981619;28;20205;-51
2022/04/08 01:17:25;;;;;;;1.08;0.98;;;7.80;99.90;;;;;;4981472;28;20572;-49
2022/04/08 01:19:52;;;;;;;1.88;0.85;;;7.80;99.90;;;;;;4982239;28;20402;-51
2022/04/08 01:22:20;;;;;;;3.67;1.20;;;7.70;99.90;;;;;;4982672;28;20210;-50
2022/04/08 01:24:49;;;;;;;1.02;0.73;;;7.80;99.90;;;;;;4981695;28;20408;-51
2022/04/08 01:27:21;;;;;;;9.23;1.38;;;7.70;99.90;;;;;;4981176;28;20457;-52
2022/04/08 01:29:51;;;;;;;1.15;0.90;;;7.60;99.90;;;;;;4980731;28;20206;-52
2022/04/08 01:32:18;;;;;;;1.65;0.80;;;7.50;99.90;;;;;;4981288;28;20442;-51
2022/04/08 01:34:48;;;;;;;2.28;1.00;;;7.40;99.90;;;;;;4980604;28;20473;-49
2022/04/08 01:37:18;;;;;;;1.48;1.33;;;7.30;99.90;;;;;;4981155;28;20252;-49
2022/04/08 01:39:49;;;;;;;1.30;1.00;;;7.20;99.90;;;;;;4981023;28;20206;-54
2022/04/08 01:42:22;;;;;;;1.27;1.00;;;7.20;99.90;;;;;;4981171;28;20202;-49
2022/04/08 01:44:49;;;;;;;0.50;0.50;;;7.10;99.90;;;;;;4980702;28;20203;-54
2022/04/08 01:47:16;;;;;;;2.67;1.15;;;7.00;99.90;;;;;;4981103;28;20430;-50
2022/04/08 01:49:43;;;;;;;3.00;1.25;;;7.00;99.90;;;;;;4980730;28;20198;-51
2022/04/08 01:52:10;;;;;;;1.15;0.70;;;7.00;99.90;;;;;;4980888;28;20464;-53
2022/04/08 01:54:37;;;;;;;1.70;1.50;;;7.00;99.90;;;;;;4980701;28;20202;-52
2022/04/08 01:57:05;;;;;;;1.10;0.98;;;6.90;99.90;;;;;;4983403;28;20276;-51
2022/04/08 01:59:32;;;;;;;1.40;0.90;;;6.80;99.90;;;;;;4984510;28;20201;-50
2022/04/08 02:02:02;;;;;;;2.25;1.27;;;6.90;99.90;;;;;;4984273;28;20214;-48
2022/04/08 02:04:30;;;;;;;2.88;1.02;;;6.90;99.90;;;;;;4985357;28;20202;-49
2022/04/08 02:06:58;;;;;;;1.38;0.93;;;6.80;99.90;;;;;;4986011;28;20214;-55
2022/04/08 02:09:25;;;;;;;2.50;1.00;;;6.80;99.90;;;;;;4992464;28;20198;-55
2022/04/08 02:11:55;;;;;;;1.30;0.93;;;6.90;99.90;;;;;;4986766;28;20265;-50
2022/04/08 02:14:22;;;;;;;1.30;1.02;;;6.90;99.90;;;;;;4984485;28;20350;-49
2022/04/08 02:16:50;;;;;;;1.00;1.00;;;6.90;99.90;;;;;;4984650;28;20261;-50
2022/04/08 02:19:17;;;;;;;7.13;1.92;;;7.00;99.90;;;;;;4984252;28;20202;-53
2022/04/08 02:21:44;;;;;;;1.58;0.68;;;7.00;99.90;;;;;;4984331;28;20560;-54
2022/04/08 02:24:13;;;;;;;3.65;0.80;;;7.00;99.90;;;;;;4983895;28;20202;-52
2022/04/08 02:26:40;;;;;;;1.58;0.82;;;7.10;99.90;;;;;;4983822;28;20218;-53
2022/04/08 02:29:07;;;;;;;0.88;0.88;;;7.00;99.90;;;;;;4983538;28;20218;-50
2022/04/08 02:31:34;;;;;;;2.05;1.10;;;7.10;99.90;;;;;;4984103;28;20202;-51
2022/04/08 02:34:01;;;;;;;10.32;1.10;;;7.00;99.90;;;;;;4983757;28;20205;-52
2022/04/08 02:36:29;;;;;;;7.97;1.10;;;7.10;99.90;;;;;;4983891;28;20210;-51
2022/04/08 02:38:56;;;;;;;0.65;0.65;;;7.10;99.90;;;;;;4984359;28;20222;-50
2022/04/08 02:41:26;;;;;;;1.45;0.80;;;7.00;99.90;;;;;;4984464;28;20249;-52
2022/04/08 02:43:54;;;;;;;2.25;1.35;;;7.00;99.90;;;;;;4983648;28;20209;-53
2022/04/08 02:46:21;;;;;;;4.10;1.40;;;7.10;99.90;;;;;;4984203;28;20230;-49
2022/04/08 02:48:50;;;;;;;2.67;1.00;;;7.00;99.90;;;;;;4982423;28;20603;-49
2022/04/08 02:51:18;;;;;;;0.60;0.60;;;7.10;99.90;;;;;;4976315;28;20293;-51
2022/04/08 02:53:45;;;;;;;1.98;0.90;;;7.10;99.90;;;;;;4983694;28;20225;-49
2022/04/08 02:56:12;;;;;;;1.20;1.10;;;7.20;99.90;;;;;;4983575;28;20245;-50
2022/04/08 02:58:40;;;;;;;4.63;1.40;;;7.10;99.90;;;;;;4982854;28;20222;-51
2022/04/08 03:01:07;;;;;;;2.15;1.02;;;7.10;99.90;;;;;;4983811;28;20210;-52
2022/04/08 03:03:34;;;;;;;3.42;1.10;;;7.10;99.90;;;;;;4982891;28;20213;-50
2022/04/08 03:06:01;;;;;;;2.08;1.00;;;7.10;99.90;;;;;;4983364;28;20398;-54
2022/04/08 03:08:29;;;;;;;6.88;1.90;;;7.10;99.90;;;;;;4981827;28;20233;-54
2022/04/08 03:10:57;;;;;;;3.70;1.45;;;7.20;99.90;;;;;;4984083;28;20194;-54
2022/04/08 03:13:24;;;;;;;1.17;1.10;;;7.30;99.90;;;;;;4983227;28;20197;-51
2022/04/08 03:15:52;;;;;;;3.90;1.45;;;7.40;99.90;;;;;;4982832;28;20210;-52
2022/04/08 03:18:19;;;;;;;3.17;1.73;;;7.30;99.90;;;;;;4982920;28;20221;-50
2022/04/08 03:20:46;;;;;;;1.38;1.08;;;7.40;99.90;;;;;;4982753;28;20225;-51
2022/04/08 03:23:13;;;;;;;2.22;1.30;;;7.50;99.90;;;;;;4982929;28;20206;-50
2022/04/08 03:25:41;;;;;;;2.08;1.00;;;7.60;99.90;;;;;;4982537;28;20229;-51
2022/04/08 03:28:09;;;;;;;2.38;1.17;;;7.80;99.90;;;;;;4982792;28;20238;-49
2022/04/08 03:30:37;;;;;;;1.77;1.40;;;7.90;99.90;;;;;;4982388;28;20274;-53
2022/04/08 03:33:05;;;;;;;3.42;1.60;;;8.00;99.90;;;;;;4982877;28;20244;-51
2022/04/08 03:35:35;;;;;;;1.52;1.05;;;8.00;99.90;;;;;;4983442;28;20265;-50
2022/04/08 03:38:02;;;;;;;2.58;0.93;;;8.10;99.90;;;;;;4982596;28;20270;-53
2022/04/08 03:40:30;;;;;;;1.58;1.48;;;8.20;99.90;;;;;;4983192;28;20210;-53
2022/04/08 03:42:57;;;;;;;1.13;0.90;;;8.30;99.90;;;;;;4982235;28;20406;-50
2022/04/08 03:45:24;;;;;;;1.95;1.27;;;8.30;99.90;;;;;;4983200;28;20210;-51
2022/04/08 03:47:51;;;;;;;1.20;1.10;;;8.40;99.90;;;;;;4982855;28;20238;-52
2022/04/08 03:50:19;;;;;;;2.58;0.90;;;8.40;99.90;;;;;;4981494;28;20206;-53
2022/04/08 03:52:46;;;;;;;3.22;1.20;;;8.50;99.90;;;;;;4981848;28;20219;-51
2022/04/08 03:55:13;;;;;;;2.65;1.25;;;8.50;99.90;;;;;;4982591;28;20237;-50
2022/04/08 03:57:40;;;;;;;2.70;1.05;;;8.50;99.90;;;;;;4982200;28;20226;-51
2022/04/08 04:00:11;;;;;;;6.78;1.50;;;8.60;99.90;;;;;;4981577;28;20551;-53
2022/04/08 04:02:39;;;;;;;2.75;1.27;;;8.60;99.90;;;;;;4981757;28;20213;-49
2022/04/08 04:05:07;;;;;;;3.83;1.13;;;8.50;99.90;;;;;;4981883;28;20202;-50
2022/04/08 04:07:34;;;;;;;2.60;1.83;;;8.50;99.90;;;;;;4980293;28;20277;-49
2022/04/08 04:10:02;;;;;;;2.58;1.13;;;8.60;99.90;;;;;;4981304;28;20457;-50
2022/04/08 04:12:29;;;;;;;0.95;0.75;;;8.60;99.90;;;;;;4982045;28;20442;-51
2022/04/08 04:14:56;;;;;;;3.20;1.10;;;8.60;99.90;;;;;;4981440;28;20198;-52
2022/04/08 04:17:24;;;;;;;1.15;0.70;;;8.60;99.90;;;;;;4981777;28;20226;-52
2022/04/08 04:19:51;;;;;;;4.50;1.20;;;8.50;99.90;;;;;;4978604;28;20242;-52
2022/04/08 04:22:21;;;;;;;1.58;1.48;;;8.50;99.90;;;;;;4979350;28;20202;-50
2022/04/08 04:24:48;;;;;;;3.33;0.70;;;8.50;99.90;;;;;;4982036;28;20513;-52
2022/04/08 04:27:15;;;;;;;2.15;1.63;;;8.50;99.90;;;;;;4981670;28;20265;-51
2022/04/08 04:29:43;;;;;;;3.40;1.50;;;8.60;99.90;;;;;;4981738;28;20198;-50
2022/04/08 04:32:19;;;;;;;1.33;1.10;;;8.60;99.90;;;;;;4981638;28;20505;-52
2022/04/08 04:34:47;;;;;;;2.03;1.30;;;8.60;99.90;;;;;;4981297;28;20225;-50
2022/04/08 04:37:14;;;;;;;1.85;0.68;;;8.60;99.90;;;;;;4974052;28;20273;-52
2022/04/08 04:39:45;;;;;;;1.95;1.40;;;8.50;99.90;;;;;;4965878;28;20270;-52
2022/04/08 04:42:12;;;;;;;1.13;0.88;;;8.60;99.90;;;;;;4968507;28;20517;-51
2022/04/08 04:44:39;;;;;;;2.70;0.88;;;8.60;99.90;;;;;;4963788;28;20235;-54
2022/04/08 04:47:07;;;;;;;1.75;0.93;;;8.60;99.90;;;;;;4977980;28;20414;-56
2022/04/08 04:49:34;;;;;;;7.43;1.15;;;8.60;99.90;;;;;;4975843;28;20393;-51
2022/04/08 04:52:01;;;;;;;2.15;0.90;;;8.80;99.90;;;;;;4981781;28;20350;-53
2022/04/08 04:54:28;;;;;;;2.30;1.42;;;8.80;99.90;;;;;;4981713;28;20410;-50
2022/04/08 04:56:55;;;;;;;2.17;1.23;;;8.90;99.90;;;;;;4980445;28;20206;-51
2022/04/08 04:59:24;;;;;;;1.50;1.40;;;9.00;99.90;;;;;;4975261;28;20202;-49
2022/04/08 05:01:51;;;;;;;4.53;1.00;;;8.90;99.90;;;;;;4961997;28;20503;-52
2022/04/08 05:04:19;;;;;;;2.38;1.05;;;8.90;99.90;;;;;;4979707;28;20210;-51
2022/04/08 05:06:46;;;;;;;2.53;1.20;;;8.80;99.90;;;;;;4980315;28;20212;-55
2022/04/08 05:09:13;;;;;;;3.25;1.30;;;8.90;99.90;;;;;;4981410;28;20222;-51
2022/04/08 05:11:48;;;;;;;1.13;1.13;;;8.90;99.90;;;;;;4981053;28;20198;-54
2022/04/08 05:14:15;;;;;;;3.47;1.85;;;9.00;99.90;;;;;;4981141;28;20214;-49
2022/04/08 05:16:42;;;;;;;7.32;2.10;;;9.10;99.90;;;;;;4980936;28;20222;-54
2022/04/08 05:19:11;;;;;;;1.13;1.05;;;9.10;99.90;;;;;;4980645;28;20259;-51
2022/04/08 05:21:40;;;;;;;2.00;1.15;;;9.10;99.90;;;;;;4980824;28;20207;-51
2022/04/08 05:24:08;;;;;;;4.53;1.58;;;9.10;99.90;;;;;;4980658;28;20475;-51
2022/04/08 05:26:38;;;;;;;2.65;1.67;;;9.10;99.90;;;;;;4980844;28;20246;-50
2022/04/08 05:29:10;;;;;;;4.35;1.42;;;9.00;99.90;;;;;;4980762;28;20230;-55
2022/04/08 05:31:37;;;;;;;7.15;1.83;;;8.90;99.90;;;;;;4982899;28;20397;-52
2022/04/08 05:34:04;;;;;;;2.40;1.55;;;8.90;99.90;;;;;;4984344;28;20203;-51
2022/04/08 05:36:31;;;;;;;2.88;1.02;;;8.90;99.90;;;;;;4984667;28;20214;-51
2022/04/08 05:38:58;;;;;;;5.78;2.08;;;9.00;99.90;;;;;;4984600;28;20307;-50
2022/04/08 05:41:27;;;;;;;1.90;1.52;;;9.20;99.90;;;;;;4984342;28;20211;-51
2022/04/08 05:44:00;;;;;;;0.80;0.63;;;9.40;99.90;;;;;;4979511;28;20245;-50
2022/04/08 05:46:28;;;;;;;2.42;1.50;;;9.50;99.90;;;;;;4979926;28;20208;-50
2022/04/08 05:49:02;;;;;;;4.85;1.92;;;9.50;99.90;;;;;;4980233;28;20257;-49
2022/04/08 05:51:30;;;;;;;1.65;1.25;;;9.50;99.90;;;;;;4979945;28;20367;-53
2022/04/08 05:54:07;;;;;;;1.75;1.65;;;9.50;99.90;;;;;;4979308;28;20258;-50
2022/04/08 05:56:35;;;;;;;1.98;1.15;;;9.50;99.90;;;;;;4979784;28;20227;-49
2022/04/08 05:59:02;;;;;;;6.95;1.50;;;9.60;99.90;;;;;;4976805;28;20554;-51
2022/04/08 06:01:29;;;;;;;4.65;2.88;;;9.70;99.90;;;;;;4979269;28;20208;-51
2022/04/08 06:03:57;;;;;;;3.92;1.08;;;9.70;99.90;;;;;;4982630;28;20230;-54
2022/04/08 06:06:24;;;;;;;3.38;1.90;;;9.70;99.90;;;;;;4984547;28;20217;-53
2022/04/08 06:08:52;;;;;;;1.50;1.40;;;9.80;99.90;;;;;;4984733;28;20777;-50
2022/04/08 06:11:22;;;;;;;1.58;1.27;;;10.00;99.90;;;;;;4964852;28;20254;-51
2022/04/08 06:13:53;;;;;;;5.18;1.15;;;10.10;99.90;;;;;;4966623;28;20259;-54
2022/04/08 06:16:24;;;;;;;1.40;0.85;;;10.00;99.90;;;;;;4984241;28;20268;-51
2022/04/08 06:18:51;;;;;;;3.20;1.73;;;10.00;99.90;;;;;;4977914;28;20227;-54
2022/04/08 06:21:18;;;;;;;2.80;1.38;;;10.10;99.90;;;;;;4976684;28;20224;-54
2022/04/08 06:23:46;;;;;;;7.50;1.27;;;10.20;99.90;;;;;;4974989;28;20208;-53
2022/04/08 06:26:15;;;;;;;4.78;2.03;;;10.20;99.90;;;;;;4976811;28;20442;-50
2022/04/08 06:28:42;;;;;;;1.75;1.50;;;10.20;99.90;;;;;;4982324;28;20361;-52
2022/04/08 06:31:10;;;;;;;2.20;1.08;;;10.20;99.90;;;;;;4983975;28;20279;-50
2022/04/08 06:33:43;;;;;;;2.42;1.23;;;10.10;99.90;;;;;;4983385;28;20243;-53
2022/04/08 06:36:10;;;;;;;2.78;1.38;;;10.20;99.90;;;;;;4983620;28;20239;-55
2022/04/08 06:38:37;;;;;;;1.95;1.20;;;10.30;99.90;;;;;;4983502;28;20264;-52
2022/04/08 06:41:04;;;;;;;3.92;1.50;;;10.40;99.90;;;;;;4983428;28;20253;-52
2022/04/08 06:43:33;;;;;;;1.67;1.55;;;10.40;99.90;;;;;;4983331;28;20204;-55
2022/04/08 06:46:00;;;;;;;5.78;2.03;;;10.60;99.90;;;;;;4983112;28;20255;-55
2022/04/08 06:48:28;;;;;;;1.60;1.50;;;10.90;99.90;;;;;;4966991;29;20239;-58
2022/04/08 06:50:58;;;;;;;2.58;1.17;;;11.00;99.90;;;;;;4973376;29;20245;-57
2022/04/08 06:53:25;;;;;;;2.65;1.00;;;10.90;99.90;;;;;;4974274;29;20197;-58
2022/04/08 06:55:54;;;;;;;1.20;1.10;;;10.90;99.90;;;;;;4969060;29;20219;-55
2022/04/08 06:58:26;;;;;;;1.45;1.35;;;10.80;99.90;;;;;;4964388;29;20335;-49
2022/04/08 07:00:53;;;;;;;3.50;1.20;;;10.80;99.90;;;;;;4963604;29;20212;-53
2022/04/08 07:03:21;;;;;;;5.53;1.60;;;10.90;99.90;;;;;;4963855;29;20205;-53
2022/04/08 07:05:48;;;;;;;2.40;1.50;;;11.00;99.90;;;;;;4970534;28;20200;-52
2022/04/08 07:08:15;;;;;;;1.20;1.20;;;11.20;99.90;;;;;;4982214;28;20268;-52
2022/04/08 07:10:42;;;;;;;0.80;0.80;;;11.40;99.90;;;;;;4982825;28;20245;-55
2022/04/08 07:13:09;;;;;;;2.40;1.08;;;11.30;99.90;;;;;;4982545;28;20442;-51
2022/04/08 07:15:37;;;;;;;0.80;0.80;;;11.60;99.90;;;;;;4983048;28;20742;-53
2022/04/08 07:18:04;;;;;;;1.25;1.13;;;11.60;99.90;;;;;;4983210;28;20240;-52
2022/04/08 07:20:32;;;;;;;1.10;1.00;;;11.60;99.90;;;;;;4983130;28;20213;-55
2022/04/08 07:23:02;;;;;;;1.33;1.23;;;11.60;99.90;;;;;;4982455;28;20437;-52
2022/04/08 07:25:29;;;;;;;1.15;0.88;;;11.50;99.90;;;;;;4982023;28;20208;-52
2022/04/08 07:27:58;;;;;;;3.75;1.17;;;11.30;99.90;;;;;;4982528;28;20254;-54
2022/04/08 07:30:26;;;;;;;1.20;1.08;;;11.20;99.90;;;;;;4983627;28;20213;-53
2022/04/08 07:32:54;;;;;;;4.80;1.67;;;10.90;99.90;;;;;;4982487;28;20208;-51
2022/04/08 07:35:25;;;;;;;1.13;1.08;;;10.90;99.90;;;;;;4982403;28;20277;-50
2022/04/08 07:37:53;;;;;;;2.47;1.20;;;11.00;99.90;;;;;;4982468;28;20296;-57
2022/04/08 07:40:20;;;;;;;1.17;1.02;;;11.30;99.90;;;;;;4978744;28;20429;-50
2022/04/08 07:42:48;;;;;;;10.10;1.30;;;11.80;99.90;;;;;;4975707;28;20273;-51
2022/04/08 07:45:15;;;;;;;1.65;1.55;;;12.80;99.90;;;;;;4982286;28;20201;-55
2022/04/08 07:47:43;;;;;;;1.20;1.10;;;14.30;99.90;;;;;;4982200;28;20348;-53
2022/04/08 07:50:13;;;;;;;0.80;0.80;;;15.00;99.90;;;;;;4982477;28;20578;-53
2022/04/08 07:52:41;;;;;;;2.92;1.00;;;15.50;99.90;;;;;;4981481;28;20260;-52
2022/04/08 07:55:09;;;;;;;3.33;1.23;;;15.50;99.90;;;;;;4981604;28;20222;-57
2022/04/08 07:57:47;;;;;;;1.00;0.90;;;15.00;99.90;;;;;;4981634;28;20250;-53
2022/04/08 08:00:17;;;;;;;5.50;1.40;;;14.80;99.90;;;;;;4981980;28;20201;-54
2022/04/08 08:02:44;;;;;;;1.10;1.00;;;14.60;99.90;;;;;;4981631;28;20206;-55
2022/04/08 08:05:12;;;;;;;5.10;1.00;;;14.30;99.90;;;;;;4981648;28;20281;-55
2022/04/08 08:07:57;;;;;;;1.50;0.80;;;14.10;99.90;;;;;;4981279;28;20233;-55
2022/04/08 08:10:31;;;;;;;1.02;1.02;;;14.10;99.90;;;;;;4981973;28;20206;-54
2022/04/08 08:13:00;;;;;;;0.80;0.80;;;14.10;99.90;;;;;;4981949;28;20258;-52
2022/04/08 08:15:28;;;;;;;6.93;1.92;;;14.10;99.90;;;;;;4981606;28;20194;-53
2022/04/08 08:17:57;;;;;;;4.00;1.70;;;15.60;99.90;;;;;;4981919;28;20303;-55
2022/04/08 08:20:26;;;;;;;7.80;1.27;;;16.90;99.90;;;;;;4982087;28;20507;-53
2022/04/08 08:22:53;;;;;;;0.80;0.80;;;18.00;99.10;;;;;;4981322;28;20628;-54
2022/04/08 08:25:21;;;;;;;1.30;1.00;;;18.70;96.00;;;;;;4981040;28;20765;-56
2022/04/08 08:27:59;;;;;;;7.30;1.60;;;19.20;95.20;;;;;;4981156;28;20499;-52
2022/04/08 08:30:29;;;;;;;1.00;0.83;;;19.70;92.90;;;;;;4981541;28;20721;-59
2022/04/08 08:32:58;;;;;;;2.67;1.37;;;20.10;90.80;;;;;;4981102;28;20427;-51
2022/04/08 08:35:27;;;;;;;1.00;0.90;;;18.90;91.20;;;;;;4981585;28;20406;-50
2022/04/08 08:37:59;;;;;;;2.03;1.53;;;17.70;91.80;;;;;;4981352;28;20435;-50
2022/04/08 08:40:32;;;;;;;1.23;1.23;;;17.40;93.00;;;;;;4981439;28;20451;-51
2022/04/08 08:43:07;;;;;;;1.90;1.17;;;17.10;93.10;;;;;;4981281;28;20435;-53
2022/04/08 08:45:35;;;;;;;0.97;0.97;;;18.00;92.20;;;;;;4981831;28;20440;-52
2022/04/08 08:48:04;;;;;;;1.43;0.97;;;17.80;91.90;;;;;;4981206;28;20530;-55
2022/04/08 08:50:31;;;;;;;1.30;1.20;;;18.40;91.20;;;;;;4980887;28;20469;-54
2022/04/08 08:52:58;;;;;;;1.27;0.73;;;18.20;91.40;;;;;;4981459;28;20460;-54
2022/04/08 08:55:26;;;;;;;2.70;0.67;;;17.10;91.60;;;;;;4981458;28;20432;-51
2022/04/08 08:57:53;;;;;;;7.53;1.40;;;16.10;94.10;;;;;;4980913;28;20448;-54
2022/04/08 09:00:23;;;;;;;0.80;0.80;;;15.40;95.00;;;;;;4982852;28;20433;-55
2022/04/08 09:02:51;;;;;;;1.23;0.90;;;15.30;96.60;;;;;;4987388;28;20431;-56
2022/04/08 09:05:23;;;;;;;2.70;1.10;;;15.70;96.50;;;;;;4988259;28;20491;-55
2022/04/08 09:07:58;;;;;;;0.85;0.70;;;15.20;95.70;;;;;;4987213;28;20464;-55
2022/04/08 09:10:32;;;;;;;1.10;1.00;;;14.20;97.60;;;;;;4990111;28;20197;-55
2022/04/08 09:13:00;;;;;;;1.35;0.80;;;13.40;99.90;;;;;;4990801;28;20190;-54
2022/04/08 09:15:28;;;;;;;0.85;0.85;;;12.40;99.90;;;;;;4986441;28;20201;-56
2022/04/08 09:18:08;;;;;;;2.85;1.90;;;11.50;99.90;;;;;;4984678;28;20225;-56
2022/04/08 09:20:53;;;;;;;1.20;1.10;;;10.90;99.90;;;;;;4985240;28;20515;-52
2022/04/08 09:23:21;;;;;;;1.40;1.30;;;10.80;99.90;;;;;;4985350;28;20507;-53
2022/04/08 09:25:49;;;;;;;1.90;1.60;;;10.80;99.90;;;;;;4985202;28;20204;-53
2022/04/08 09:28:17;;;;;;;4.07;1.80;;;11.20;99.90;;;;;;4985140;28;20281;-51
2022/04/08 09:30:56;;;;;;;2.63;1.70;;;11.40;99.90;;;;;;4985625;28;20256;-51
2022/04/08 09:33:32;;;;;;;1.40;1.30;;;11.90;99.90;;;;;;4987068;28;20530;-55
2022/04/08 09:36:01;;;;;;;1.40;1.30;;;12.10;99.90;;;;;;4987893;28;20543;-52
2022/04/08 09:38:32;;;;;;;2.72;1.10;;;12.10;99.90;;;;;;4987920;28;20237;-51
2022/04/08 09:41:07;;;;;;;1.38;1.20;;;12.00;99.90;;;;;;4984990;28;20198;-54
2022/04/08 09:43:35;;;;;;;2.00;1.50;;;12.00;99.90;;;;;;4985030;28;20211;-56
2022/04/08 09:46:17;;;;;;;1.88;1.70;;;12.10;99.90;;;;;;4984579;28;20228;-52
2022/04/08 09:48:45;;;;;;;2.50;2.03;;;12.30;99.90;;;;;;4984378;28;20214;-57
2022/04/08 09:51:20;;;;;;;1.20;1.10;;;12.50;99.90;;;;;;4987575;28;20399;-51
2022/04/08 09:53:57;;;;;;;5.50;1.77;;;12.50;99.90;;;;;;4987338;28;20225;-50
2022/04/08 09:56:27;;;;;;;4.20;2.03;;;12.50;99.90;;;;;;4984215;28;20201;-54
2022/04/08 09:59:06;;;;;;;1.50;1.40;;;12.70;99.90;;;;;;4983755;28;20237;-52
2022/04/08 10:01:36;;;;;;;2.28;1.23;;;13.30;99.90;;;;;;4984253;28;20250;-56
2022/04/08 10:04:04;;;;;;;1.88;1.10;;;14.00;99.90;;;;;;4983746;28;20249;-55
2022/04/08 10:06:32;;;;;;;3.05;1.73;;;14.30;99.90;;;;;;4984032;28;20202;-50
2022/04/08 10:09:00;;;;;;;2.17;1.20;;;14.20;99.90;;;;;;4983456;28;20229;-56
2022/04/08 10:11:50;;;;;;;2.72;1.20;;;14.30;99.90;;;;;;4984228;28;20202;-51
2022/04/08 10:14:43;;;;;;;1.65;1.40;;;14.10;99.90;;;;;;4984048;28;20195;-52
2022/04/08 10:17:14;;;;;;;2.35;1.25;;;14.10;99.90;;;;;;4983340;28;20221;-53
2022/04/08 10:19:42;;;;;;;1.75;1.10;;;14.00;99.90;;;;;;4983628;28;20250;-59
2022/04/08 10:22:16;;;;;;;0.70;0.70;;;14.00;99.90;;;;;;4983691;28;20202;-52
2022/04/08 10:24:56;;;;;;;1.95;0.95;;;14.50;99.90;;;;;;4983486;28;20202;-49
2022/04/08 10:27:34;;;;;;;1.35;1.20;;;14.10;99.90;;;;;;4983750;28;20226;-51
2022/04/08 10:30:24;;;;;;;3.05;1.33;;;13.60;99.90;;;;;;4983414;28;20297;-55
2022/04/08 10:33:01;;;;;;;1.15;0.80;;;13.50;99.90;;;;;;4983512;28;20198;-54
2022/04/08 10:35:29;;;;;;;3.60;1.23;;;13.20;99.90;;;;;;4983789;28;20520;-51
2022/04/08 10:38:02;;;;;;;9.23;0.90;;;12.80;99.90;;;;;;4983210;28;20280;-52
2022/04/08 10:40:32;;;;;;;1.63;1.25;;;12.90;99.90;;;;;;4983559;28;20212;-54
2022/04/08 10:43:06;;;;;;;1.98;1.88;;;12.90;99.90;;;;;;4983378;28;20227;-55
2022/04/08 10:45:35;;;;;;;3.05;1.05;;;12.90;99.90;;;;;;4983237;28;20366;-54
2022/04/08 10:48:16;;;;;;;1.10;1.00;;;12.80;99.90;;;;;;4982254;28;20241;-56
2022/04/08 10:50:43;;;;;;;1.05;0.95;;;12.90;99.90;;;;;;4982503;28;20198;-56
2022/04/08 10:53:13;;;;;;;3.95;1.60;;;13.10;99.90;;;;;;4982982;28;20272;-54
2022/04/08 10:56:04;;;;;;;1.27;1.05;;;13.40;99.90;;;;;;4982557;28;20198;-55
2022/04/08 10:58:39;;;;;;;0.85;0.85;;;13.90;99.90;;;;;;4982943;28;20606;-54
2022/04/08 11:01:19;;;;;;;1.33;1.23;;;14.40;99.90;;;;;;4982846;28;20198;-54
2022/04/08 11:03:55;;;;;;;1.55;0.98;;;14.70;99.90;;;;;;4982861;28;20209;-56
2022/04/08 11:06:25;;;;;;;1.10;0.93;;;15.00;99.90;;;;;;4982709;28;20268;-53
2022/04/08 11:08:52;;;;;;;0.52;0.50;;;14.90;99.90;;;;;;4981898;28;20248;-53
2022/04/08 11:11:30;;;;;;;1.17;1.17;;;14.30;99.90;;;;;;4982530;28;20206;-54
2022/04/08 11:13:58;;;;;;;2.80;1.13;;;14.00;99.90;;;;;;4982535;28;20242;-56
2022/04/08 11:16:31;;;;;;;1.15;1.05;;;13.70;99.90;;;;;;4982622;28;20270;-52
2022/04/08 11:18:59;;;;;;;2.75;2.35;;;13.40;99.90;;;;;;4982401;28;20252;-54
2022/04/08 11:21:29;;;;;;;1.73;1.40;;;13.20;99.90;;;;;;4982075;28;20198;-54
2022/04/08 11:23:59;;;;;;;3.40;1.70;;;13.60;99.90;;;;;;4983562;28;20214;-53
2022/04/08 11:26:28;;;;;;;1.75;1.00;;;13.50;99.90;;;;;;4983461;28;20202;-53
2022/04/08 11:29:18;;;;;;;4.80;0.88;;;13.30;99.90;;;;;;4982153;28;20221;-58
2022/04/08 11:31:47;;;;;;;4.05;1.05;;;13.20;99.90;;;;;;4981050;28;20254;-59
2022/04/08 11:34:16;;;;;;;2.55;1.80;;;13.30;99.90;;;;;;4983375;28;20194;-55
2022/04/08 11:36:44;;;;;;;2.78;0.77;;;13.50;99.90;;;;;;4981701;28;20545;-56
2022/04/08 11:39:21;;;;;;;1.08;0.88;;;13.70;99.90;;;;;;4977319;28;20206;-50
2022/04/08 11:41:53;;;;;;;0.90;0.90;;;13.90;99.90;;;;;;4975323;28;20215;-52
2022/04/08 11:44:21;;;;;;;1.98;1.08;;;13.90;99.90;;;;;;4976548;28;20471;-56
2022/04/08 11:46:52;;;;;;;0.68;0.68;;;13.80;99.90;;;;;;4977935;28;20212;-51
2022/04/08 11:49:27;;;;;;;1.17;0.95;;;13.80;99.90;;;;;;4978142;28;20293;-56
2022/04/08 11:52:02;;;;;;;1.83;0.73;;;13.80;99.90;;;;;;4981015;28;20202;-56
2022/04/08 11:54:38;;;;;;;3.35;1.50;;;13.70;99.90;;;;;;4982055;28;20285;-54
2022/04/08 11:57:32;;;;;;;2.13;1.35;;;13.60;99.90;;;;;;4984353;28;20379;-54
2022/04/08 12:00:02;;;;;;;2.05;1.08;;;13.70;99.90;;;;;;4983392;28;20251;-55
2022/04/08 12:02:31;;;;;;;2.13;1.15;;;14.10;99.90;;;;;;4982295;28;20303;-53
2022/04/08 12:05:01;;;;;;;1.23;1.13;;;14.30;99.90;;;;;;4984851;28;20445;-53
2022/04/08 12:07:51;;;;;;;6.45;3.15;;;14.60;99.90;;;;;;4972442;28;20734;-53
2022/04/08 12:10:20;;;;;;;1.00;0.70;;;15.00;99.90;;;;;;4963762;28;20353;-55
2022/04/08 12:12:47;;;;;;;2.78;1.55;;;15.10;99.30;;;;;;4971726;28;20397;-53
2022/04/08 12:15:15;;;;;;;2.17;1.52;;;15.40;99.60;;;;;;4967722;28;20402;-55
2022/04/08 12:17:43;;;;;;;1.00;1.00;;;15.60;98.30;;;;;;4967258;28;20563;-56
2022/04/08 12:20:15;;;;;;;1.40;0.80;;;15.60;97.00;;;;;;4966497;28;20522;-56
2022/04/08 12:22:47;;;;;;;0.73;0.73;;;15.50;96.10;;;;;;4963073;28;20209;-55
2022/04/08 12:25:19;;;;;;;5.85;1.98;;;15.50;95.80;;;;;;4973525;28;20210;-55
2022/04/08 12:27:54;;;;;;;6.57;1.60;;;15.70;95.50;;;;;;4980724;28;20269;-54
2022/04/08 12:30:38;;;;;;;2.88;1.45;;;15.70;94.70;;;;;;4980553;28;20242;-57
2022/04/08 12:33:17;;;;;;;0.88;0.80;;;15.70;94.50;;;;;;4977533;28;20200;-52
2022/04/08 12:35:49;;;;;;;0.82;0.82;;;15.50;95.00;;;;;;4981271;28;20510;-49
2022/04/08 12:38:19;;;;;;;2.45;1.98;;;15.30;95.10;;;;;;4980416;28;20219;-55
2022/04/08 12:40:49;;;;;;;1.13;1.05;;;15.40;94.00;;;;;;4980104;28;20206;-52
2022/04/08 12:43:18;;;;;;;1.50;1.10;;;15.70;94.40;;;;;;4980097;28;20200;-57
2022/04/08 12:45:45;;;;;;;0.60;0.60;;;15.80;94.60;;;;;;4979859;28;20445;-54
2022/04/08 12:48:13;;;;;;;2.70;1.15;;;15.60;94.60;;;;;;4979658;28;20242;-55
2022/04/08 12:50:41;;;;;;;2.08;1.35;;;15.50;94.70;;;;;;4980553;28;20232;-56
2022/04/08 12:53:08;;;;;;;1.40;1.30;;;15.70;94.40;;;;;;4977493;28;20435;-51
2022/04/08 12:55:36;;;;;;;1.30;1.20;;;15.80;94.10;;;;;;4981085;28;20507;-55
2022/04/08 12:58:03;;;;;;;1.60;1.13;;;16.10;94.00;;;;;;4979965;28;20219;-53
2022/04/08 13:00:33;;;;;;;2.00;1.37;;;16.50;92.70;;;;;;4980325;28;20203;-51
2022/04/08 13:03:01;;;;;;;2.10;1.57;;;16.60;92.40;;;;;;4979907;28;20417;-53